WAGO2: Chouteau Lock And Dam (L&D 17)

Data processed at Fri Mar 09 2018 23:36


All information presented herein is the property of the government of the United States of America and may be revised or deleted at any time without prior notice.
Dissemination of this information without the expressed written consent of the Public Affairs Office, Tulsa District U.S. Army Corps of Engineers is strictly prohibited.
These data are gathered electronically and, as presented, have not undergone any form of quality control. These data are not guaranteed to be valid or correct.
Go to home page.
Go to station list.

Upstream stations:

Downstream station:
Previous Day
Next Day
Current Day
    
SHEF ID:       WAGO2     Chouteau Lock And Dam (L&D 17)
STATION TYPE:  NAVIGATION LOCK
Normal Pool:  Bottom =   511.50, Top =   511.50

               PRECIP ELEVATION   STORAGE   TW-ELEV    INFLOW   RELEASE  AIR-TEMP  WIND-DIRWIND-SPEED REL-HUMID SOLAR-RAD   VOLTAGE  BAT-LOAD
                   in        ft     ac-ft        ft       cfs       cfs         F       deg       mph         %      W/m2      volt      volt
              Ccp-Rev   Ccp-Rev   Ccp-Rev   Ccp-Rev  Regi-Rev  Regi-Rev   Ccp-Rev   Ccp-Rev   Ccp-Rev   Ccp-Rev   Ccp-Rev   Ccp-Rev   Ccp-Rev
(US/Central)
03/07 00:00      0.00    511.24     23115    490.98      5004      4400     35.56    345.20      8.20     53.87      0.00     13.57     13.07
03/07 01:00      0.00    511.24     23115    491.01      4455      4400     34.52    327.20      7.20     55.63      0.00     13.56     13.07
03/07 02:00      0.00    511.24     23115    491.02      4565      4400     34.03    333.20      7.30     57.99      0.00     13.56     13.09
03/07 03:00      0.00    511.25     23137    491.03      4620      4400     32.90    341.30      7.50     60.93      0.00     13.57     13.06
03/07 04:00      0.00    511.27     23183    491.07      4455      4400     31.66    329.30      6.80     63.61      0.00     13.49     13.07
03/07 05:00      0.00    511.28     23206    491.10      4949      4400     31.21    340.40      7.50     66.64      0.00     13.47     13.08
03/07 06:00      0.00    511.25     23137    491.17      5479      4400     30.06    324.70      6.20     68.83      0.00     13.47     13.07
03/07 07:00      0.00    511.34     23342    491.27      5624      4400     29.79    326.30      6.30     71.54      0.00     13.56     13.08
03/07 08:00      0.00    511.40     23478    491.32      6249      5675     29.82    303.90      5.80     70.77     49.00     13.56     13.05
03/07 09:00      0.00    511.40     23478    491.46      7039      5675     31.91    323.40      7.40     65.77    183.70     13.56     13.09
03/07 10:00      0.00    511.40     23478    491.75      6950      7800     34.07    343.10      9.80     58.94    450.60     13.47     13.11
03/07 11:00      0.00    511.39     23455    491.87      6990      7800     36.01    338.60      9.40     55.70    652.10     13.54     13.11
03/07 12:00      0.00    511.34     23342    492.02      7470      7800     38.50    316.70      7.90     50.19    778.60     13.48     13.11
03/07 13:00      0.00    511.33     23319    492.09      7635      7800     40.98    324.60      8.40     45.36    828.70     13.47     13.11
03/07 14:00      0.00    511.34     23342    492.14      7300      7800     43.52    323.30      8.10     41.04    814.80     13.59     13.11
03/07 15:00      0.00    511.37     23410    492.18      7295      7800     46.22    322.60      9.20     36.81    732.00     13.59     13.05
03/07 16:00      0.00    511.33     23319    492.16      7345      6950     48.58    321.30      9.20     33.15    588.00     13.55     13.09
03/07 17:00      0.00    511.31     23274    492.16      6231      6950     49.50    324.80      8.40     31.23    389.70     13.49     13.06
03/07 18:00      0.00    511.34     23342    492.05      6160      6950     49.93    334.10      5.50     29.97    161.00     13.59     13.08
03/07 19:00      0.00    511.33     23319    491.96      6260      5250     47.89    341.30      3.10     33.62      1.80     13.55     13.04
03/07 20:00      0.00    511.35     23364    491.89      5920      5250     42.57     82.70      0.20     49.81      0.00     13.56     13.05
03/07 21:00      0.00    511.39     23455    491.82      5610      5250     38.08     84.00      0.00     60.72      0.00     13.48     13.05
03/07 22:00      0.00    511.37     23410    491.77      6244      5250     35.35    153.00      0.10     73.83      0.00     13.54     13.05
03/07 23:00      0.00    511.39     23455    491.71      5780      5675     33.40     86.60      0.00     87.95      0.00     13.56     13.05